createdAt,value
2022-09-26T00:00:16.944Z,3.70
2022-09-26T00:05:18.576Z,5.43
2022-09-26T00:10:20.200Z,4.28
2022-09-26T00:15:22.876Z,5.18
2022-09-26T00:20:24.648Z,1.48
2022-09-26T00:25:26.903Z,2.33
2022-09-26T00:30:28.586Z,2.90
2022-09-26T00:35:30.408Z,5.03
2022-09-26T00:40:33.003Z,4.30
2022-09-26T00:45:34.839Z,3.00
2022-09-26T00:50:41.256Z,4.75
2022-09-26T00:55:50.118Z,5.95
2022-09-26T01:00:52.215Z,5.30
2022-09-26T01:05:54.825Z,5.75
2022-09-26T01:10:57.338Z,4.45
2022-09-26T01:15:59.058Z,4.35
2022-09-26T01:21:37.539Z,5.88
2022-09-26T01:27:18.902Z,6.45
2022-09-26T01:32:50.386Z,3.97
2022-09-26T01:38:24.876Z,4.43
2022-09-26T01:43:48.516Z,3.60
2022-09-26T01:48:58.711Z,3.80
2022-09-26T01:54:08.395Z,3.83
2022-09-26T01:59:24.859Z,7.65
2022-09-26T02:04:34.663Z,3.42
2022-09-26T02:09:48.956Z,4.60
2022-09-26T02:14:56.643Z,3.70
2022-09-26T02:20:14.906Z,6.70
2022-09-26T02:25:19.325Z,4.70
2022-09-26T02:30:21.099Z,3.90
2022-09-26T02:35:42.712Z,3.90
2022-09-26T02:40:57.984Z,4.55
2022-09-26T02:46:14.003Z,5.68
2022-09-26T02:51:44.474Z,8.75
2022-09-26T02:57:01.361Z,4.38
2022-09-26T03:02:13.393Z,5.00
2022-09-26T03:07:32.592Z,6.03
2022-09-26T03:17:39.162Z,6.80
2022-09-26T03:22:44.651Z,6.75
2022-09-26T03:27:47.130Z,7.93
2022-09-26T03:32:49.346Z,10.55
2022-09-26T03:37:51.001Z,6.72
2022-09-26T03:42:52.953Z,6.63
2022-09-26T03:47:58.411Z,7.03
2022-09-26T03:53:01.415Z,8.52
2022-09-26T03:58:03.103Z,6.20
2022-09-26T04:03:10.362Z,5.97
2022-09-26T04:08:14.543Z,6.55
2022-09-26T04:13:46.650Z,8.15
2022-09-26T04:18:40.228Z,7.57
2022-09-26T04:23:43.407Z,7.20
2022-09-26T04:28:47.390Z,9.00
2022-09-26T04:33:49.862Z,5.57
2022-09-26T04:38:52.033Z,7.50
2022-09-26T04:43:56.053Z,5.95
2022-09-26T04:48:59.871Z,10.90
2022-09-26T04:54:01.543Z,7.00
2022-09-26T04:59:07.606Z,6.65
2022-09-26T05:04:33.601Z,3.80
2022-09-26T05:09:36.254Z,6.88
2022-09-26T05:14:58.727Z,6.25
2022-09-26T05:20:00.966Z,7.88
2022-09-26T05:25:32.634Z,5.45
2022-09-26T05:30:37.384Z,5.32
2022-09-26T05:35:40.307Z,8.40
2022-09-26T05:40:57.312Z,10.57
2022-09-26T05:46:06.373Z,6.50
2022-09-26T05:51:16.595Z,6.60
2022-09-26T05:56:19.955Z,6.68
2022-09-26T06:01:39.737Z,8.43
2022-09-26T06:06:53.027Z,8.20
2022-09-26T06:11:54.666Z,7.43
2022-09-26T06:16:56.361Z,6.60
2022-09-26T06:21:58.039Z,9.40
2022-09-26T06:26:59.766Z,7.22
2022-09-26T06:32:01.771Z,7.30
2022-09-26T06:37:33.711Z,7.80
2022-09-26T06:42:37.838Z,8.30
2022-09-26T06:48:10.211Z,7.90
2022-09-26T06:53:31.388Z,8.80
2022-09-26T06:58:34.194Z,10.18
2022-09-26T07:03:45.170Z,8.20
2022-09-26T07:09:11.277Z,8.00
2022-09-26T07:14:21.561Z,8.65
2022-09-26T07:19:29.259Z,8.60
2022-09-26T07:24:37.429Z,9.82
2022-09-26T07:29:39.429Z,9.63
2022-09-26T07:34:42.767Z,10.05
2022-09-26T07:39:47.413Z,9.60
2022-09-26T07:45:21.934Z,7.55
2022-09-26T07:50:16.420Z,8.82
2022-09-26T07:55:31.785Z,7.28
2022-09-26T08:00:33.600Z,9.40
2022-09-26T08:05:48.150Z,7.93
2022-09-26T08:10:50.327Z,8.77
2022-09-26T08:16:06.379Z,8.50
2022-09-26T08:21:13.383Z,7.60
2022-09-26T08:26:15.623Z,7.75
2022-09-26T08:31:20.853Z,4.72
2022-09-26T08:36:22.958Z,5.65
2022-09-26T08:42:11.216Z,5.95
2022-09-26T08:47:43.906Z,6.60
2022-09-26T08:53:10.351Z,6.45
2022-09-26T08:58:26.606Z,7.78
2022-09-26T09:03:40.815Z,5.32
2022-09-26T09:08:56.281Z,5.45
2022-09-26T09:14:45.674Z,4.47
2022-09-26T09:20:51.570Z,5.10
2022-09-26T09:31:45.814Z,8.85
2022-09-26T09:37:08.391Z,6.38
2022-09-26T09:42:39.371Z,4.28
2022-09-26T09:47:42.530Z,3.22
2022-09-26T09:53:18.474Z,3.90
2022-09-26T09:58:25.476Z,4.13
2022-09-26T10:04:10.309Z,4.32
2022-09-26T10:09:36.441Z,4.47
2022-09-26T10:15:06.622Z,3.80
2022-09-26T10:20:37.458Z,5.85
2022-09-26T10:25:45.039Z,3.90
2022-09-26T10:30:49.947Z,7.07
2022-09-26T10:36:04.620Z,4.95
2022-09-26T10:41:13.063Z,4.13
2022-09-26T10:46:18.844Z,3.45
2022-09-26T10:51:48.709Z,4.40
2022-09-26T10:56:59.135Z,6.03
2022-09-26T11:02:03.812Z,4.05
2022-09-26T11:07:10.761Z,5.45
2022-09-26T11:12:29.697Z,5.00
2022-09-26T11:17:48.531Z,3.67
2022-09-26T11:23:02.731Z,4.03
2022-09-26T11:28:23.690Z,4.97
2022-09-26T11:33:46.710Z,3.20
2022-09-26T11:39:27.394Z,3.33
2022-09-26T11:44:40.674Z,1.88
2022-09-26T11:50:23.895Z,6.28
2022-09-26T11:56:15.811Z,3.85
2022-09-26T12:01:55.059Z,5.25
2022-09-26T12:07:03.502Z,4.75
2022-09-26T12:12:27.636Z,2.75
2022-09-26T12:17:49.599Z,5.20
2022-09-26T12:23:04.863Z,4.78
2022-09-26T12:28:42.191Z,3.60
2022-09-26T12:34:07.701Z,1.53
2022-09-26T12:39:33.677Z,3.25
2022-09-26T12:45:15.202Z,2.85
2022-09-26T12:50:39.478Z,1.70
2022-09-26T12:56:09.007Z,3.53
2022-09-26T13:01:55.981Z,1.88
2022-09-26T13:07:24.124Z,2.92
2022-09-26T13:13:05.302Z,1.70
2022-09-26T13:18:35.354Z,2.83
2022-09-26T13:23:57.729Z,2.03
2022-09-26T13:29:18.547Z,2.05
2022-09-26T13:34:50.181Z,1.77
2022-09-26T13:40:02.772Z,1.73
2022-09-26T13:45:25.443Z,2.10
2022-09-26T13:50:41.167Z,1.23
2022-09-26T13:55:43.419Z,2.45
2022-09-26T14:00:52.954Z,1.55
2022-09-26T14:06:08.574Z,3.05
2022-09-26T14:11:49.105Z,1.10
2022-09-26T14:16:56.718Z,1.40
2022-09-26T14:22:02.783Z,1.40
2022-09-26T14:27:10.275Z,1.27
2022-09-26T14:37:33.454Z,2.40
2022-09-26T14:42:57.002Z,1.13
2022-09-26T14:48:19.590Z,2.42
2022-09-26T14:53:40.132Z,1.88
2022-09-26T14:58:48.650Z,1.98
2022-09-26T15:04:08.276Z,1.10
2022-09-26T15:09:12.157Z,1.27
2022-09-26T15:14:37.540Z,1.25
2022-09-26T15:19:50.053Z,3.17
2022-09-26T15:24:54.661Z,1.20
2022-09-26T15:30:06.470Z,1.73
2022-09-26T15:35:13.815Z,1.80
2022-09-26T15:40:23.176Z,0.90
2022-09-26T15:45:33.198Z,1.55
2022-09-26T15:50:40.361Z,1.25
2022-09-26T15:56:08.404Z,1.45
2022-09-26T16:06:25.191Z,3.53
2022-09-26T16:11:27.473Z,5.38
2022-09-26T16:16:34.671Z,1.80
2022-09-26T16:21:37.602Z,2.28
2022-09-26T16:26:40.447Z,2.72
2022-09-26T16:31:47.422Z,1.58
2022-09-26T16:36:50.723Z,2.33
2022-09-26T16:42:01.907Z,2.88
2022-09-26T16:47:29.023Z,3.10
2022-09-26T16:52:35.358Z,2.85
2022-09-26T16:57:39.929Z,2.30
2022-09-26T17:02:42.181Z,2.00
2022-09-26T17:07:44.838Z,2.85
2022-09-26T17:12:53.494Z,4.13
2022-09-26T17:17:56.812Z,1.88
2022-09-26T17:23:11.997Z,1.73
2022-09-26T17:28:38.591Z,1.75
2022-09-26T17:33:41.913Z,2.53
2022-09-26T17:38:43.567Z,2.08
2022-09-26T17:43:45.212Z,1.98
2022-09-26T17:48:47.139Z,4.20
2022-09-26T17:53:52.195Z,2.58
2022-09-26T17:58:54.221Z,2.08
2022-09-26T18:04:00.308Z,2.03
2022-09-26T18:09:10.033Z,1.67
2022-09-26T18:14:15.508Z,2.00
2022-09-26T18:19:17.489Z,1.70
2022-09-26T18:24:20.104Z,2.67
2022-09-26T18:29:33.062Z,2.42
2022-09-26T18:34:34.746Z,3.28
2022-09-26T18:39:36.441Z,1.40
2022-09-26T18:44:38.322Z,1.75
2022-09-26T18:49:40.420Z,3.45
2022-09-26T18:54:44.627Z,3.35
2022-09-26T18:59:46.292Z,3.83
2022-09-26T19:04:48.528Z,2.40
2022-09-26T19:09:50.822Z,2.75
2022-09-26T19:14:52.414Z,3.00
2022-09-26T19:19:54.002Z,3.58
2022-09-26T19:24:59.877Z,1.58
2022-09-26T19:30:06.640Z,3.63
2022-09-26T19:35:24.258Z,4.63
2022-09-26T19:40:26.775Z,4.13
2022-09-26T19:45:32.143Z,3.55
2022-09-26T19:50:35.573Z,3.55
2022-09-26T19:55:37.457Z,4.47
2022-09-26T20:00:43.455Z,3.05
2022-09-26T20:05:47.046Z,2.53
2022-09-26T20:10:49.786Z,2.85
2022-09-26T20:15:51.581Z,2.15
2022-09-26T20:20:55.689Z,4.18
2022-09-26T20:25:57.385Z,2.67
2022-09-26T20:30:59.700Z,4.28
2022-09-26T20:36:04.216Z,1.77
2022-09-26T20:41:13.486Z,4.57
2022-09-26T20:46:15.652Z,3.45
2022-09-26T20:51:30.125Z,2.95
2022-09-26T20:56:32.011Z,5.40
2022-09-26T21:01:33.792Z,2.10
2022-09-26T21:06:36.499Z,3.58
2022-09-26T21:11:38.206Z,1.77
2022-09-26T21:16:44.307Z,4.35
2022-09-26T21:21:46.285Z,5.55
2022-09-26T21:26:54.748Z,3.20
2022-09-26T21:32:04.447Z,1.98
2022-09-26T21:37:08.370Z,3.38
2022-09-26T21:42:10.149Z,1.48
2022-09-26T21:47:11.794Z,2.03
2022-09-26T21:52:20.321Z,1.52
2022-09-26T21:57:26.878Z,2.45
2022-09-26T22:02:28.696Z,1.30
2022-09-26T22:07:30.438Z,1.42
2022-09-26T22:12:32.496Z,2.30
2022-09-26T22:17:34.170Z,1.50
2022-09-26T22:22:35.925Z,2.00
2022-09-26T22:27:38.238Z,1.48
2022-09-26T22:32:39.928Z,2.45
2022-09-26T22:37:41.540Z,1.20
2022-09-26T22:42:43.283Z,1.75
2022-09-26T22:47:44.922Z,1.63
2022-09-26T22:52:46.814Z,1.45
2022-09-26T22:57:51.153Z,2.42
2022-09-26T23:02:52.784Z,1.33
2022-09-26T23:07:54.755Z,1.60
2022-09-26T23:12:57.517Z,3.13
2022-09-26T23:17:59.132Z,1.38
2022-09-26T23:23:00.814Z,4.72
2022-09-26T23:28:05.170Z,3.97
2022-09-26T23:33:07.510Z,1.20
2022-09-26T23:38:09.150Z,1.13
2022-09-26T23:43:10.794Z,1.80
2022-09-26T23:48:12.399Z,2.47
2022-09-26T23:53:15.529Z,4.47
2022-09-26T23:58:17.664Z,3.20
